createdAt,value
2023-03-07T00:00:13.396Z,78.59
2023-03-07T00:05:17.095Z,79.30
2023-03-07T00:10:20.201Z,78.66
2023-03-07T00:15:24.679Z,79.28
2023-03-07T00:20:27.609Z,79.41
2023-03-07T00:25:30.452Z,80.11
2023-03-07T00:30:34.698Z,80.35
2023-03-07T00:35:37.503Z,79.96
2023-03-07T00:40:40.331Z,81.34
2023-03-07T00:45:44.551Z,81.32
2023-03-07T00:50:48.025Z,81.32
2023-03-07T00:55:59.505Z,82.50
2023-03-07T01:01:04.954Z,82.93
2023-03-07T01:06:10.098Z,84.10
2023-03-07T01:11:14.102Z,83.42
2023-03-07T01:16:20.522Z,85.25
2023-03-07T01:21:24.538Z,84.86
2023-03-07T01:26:29.230Z,84.22
2023-03-07T01:31:33.585Z,85.72
2023-03-07T01:36:38.547Z,88.70
2023-03-07T01:41:42.800Z,87.54
2023-03-07T01:46:53.507Z,86.09
2023-03-07T01:52:04.032Z,87.26
2023-03-07T01:57:07.638Z,85.90
2023-03-07T02:02:17.035Z,88.17
2023-03-07T02:07:23.388Z,88.62
2023-03-07T02:12:26.344Z,88.56
2023-03-07T02:17:31.215Z,88.21
2023-03-07T02:22:35.199Z,88.70
2023-03-07T02:27:40.946Z,88.23
2023-03-07T02:32:44.213Z,88.61
2023-03-07T02:37:50.964Z,88.79
2023-03-07T02:43:01.690Z,88.12
2023-03-07T02:48:05.054Z,88.92
2023-03-07T02:53:08.014Z,87.87
2023-03-07T02:58:12.391Z,87.94
2023-03-07T03:03:15.307Z,88.17
2023-03-07T03:08:18.388Z,88.09
2023-03-07T03:13:22.770Z,87.82
2023-03-07T03:18:28.286Z,87.18
2023-03-07T03:23:31.246Z,87.83
2023-03-07T03:28:35.995Z,88.33
2023-03-07T03:33:39.366Z,88.36
2023-03-07T03:38:42.594Z,88.51
2023-03-07T03:43:47.471Z,89.90
2023-03-07T03:48:55.189Z,88.29
2023-03-07T03:54:01.004Z,88.23
2023-03-07T03:59:05.570Z,88.31
2023-03-07T04:04:08.454Z,89.12
2023-03-07T04:09:12.888Z,88.44
2023-03-07T04:14:19.921Z,88.68
2023-03-07T04:19:22.968Z,89.91
2023-03-07T04:24:26.835Z,89.94
2023-03-07T04:29:31.265Z,88.58
2023-03-07T04:34:39.814Z,89.33
2023-03-07T04:39:42.738Z,88.78
2023-03-07T04:44:48.069Z,90.52
2023-03-07T04:49:50.906Z,90.12
2023-03-07T04:54:53.771Z,92.21
2023-03-07T04:59:58.028Z,90.88
2023-03-07T05:05:01.468Z,92.30
2023-03-07T05:10:04.819Z,92.25
2023-03-07T05:15:10.436Z,91.41
2023-03-07T05:20:13.366Z,92.60
2023-03-07T05:25:17.737Z,91.16
2023-03-07T05:30:22.778Z,90.82
2023-03-07T05:35:25.797Z,90.04
2023-03-07T05:40:30.783Z,91.27
2023-03-07T05:45:35.187Z,90.08
2023-03-07T05:50:38.563Z,89.52
2023-03-07T05:55:41.544Z,91.09
2023-03-07T06:00:46.043Z,88.08
2023-03-07T06:05:50.931Z,89.54
2023-03-07T06:10:55.495Z,88.66
2023-03-07T06:16:00.736Z,87.33
2023-03-07T06:21:06.190Z,87.41
2023-03-07T06:26:14.924Z,86.96
2023-03-07T06:31:21.771Z,86.45
2023-03-07T06:36:24.667Z,86.65
2023-03-07T06:41:34.082Z,86.17
2023-03-07T06:46:40.767Z,86.05
2023-03-07T06:51:49.033Z,86.47
2023-03-07T06:56:53.247Z,86.42
2023-03-07T07:02:02.598Z,85.37
2023-03-07T07:07:07.100Z,85.47
2023-03-07T07:12:10.573Z,87.74
2023-03-07T07:17:15.001Z,86.26
2023-03-07T07:22:18.642Z,87.93
2023-03-07T07:27:21.594Z,89.82
2023-03-07T07:32:26.449Z,87.83
2023-03-07T07:37:29.619Z,87.48
2023-03-07T07:42:32.543Z,87.93
2023-03-07T07:47:54.061Z,88.19
2023-03-07T07:52:58.362Z,89.35
2023-03-07T07:58:01.216Z,89.32
2023-03-07T08:03:05.606Z,90.61
2023-03-07T08:08:08.421Z,89.16
2023-03-07T08:13:13.611Z,91.78
2023-03-07T08:18:17.782Z,90.63
2023-03-07T08:23:20.601Z,89.09
2023-03-07T08:28:23.388Z,89.69
2023-03-07T08:33:27.521Z,89.80
2023-03-07T08:38:30.375Z,88.54
2023-03-07T08:43:34.627Z,87.17
2023-03-07T08:48:38.817Z,86.51
2023-03-07T08:53:43.011Z,85.46
2023-03-07T08:58:46.203Z,85.42
2023-03-07T09:03:50.566Z,85.28
2023-03-07T09:08:53.424Z,85.45
2023-03-07T09:13:56.232Z,85.86
2023-03-07T09:19:00.397Z,85.74
2023-03-07T09:24:04.145Z,85.88
2023-03-07T09:29:06.950Z,85.51
2023-03-07T09:34:11.755Z,85.44
2023-03-07T09:39:15.472Z,85.91
2023-03-07T09:44:24.740Z,85.46
2023-03-07T09:49:55.641Z,86.05
2023-03-07T09:55:01.639Z,85.63
2023-03-07T10:00:12.333Z,86.88
2023-03-07T10:05:28.155Z,87.16
2023-03-07T10:10:37.895Z,86.72
2023-03-07T10:15:46.578Z,88.12
2023-03-07T10:20:54.972Z,87.66
2023-03-07T10:26:03.128Z,86.99
2023-03-07T10:31:16.516Z,86.73
2023-03-07T10:36:23.065Z,86.66
2023-03-07T10:41:25.989Z,85.92
2023-03-07T10:46:31.488Z,85.98
2023-03-07T10:51:50.613Z,86.02
2023-03-07T10:57:08.608Z,85.73
2023-03-07T11:02:31.315Z,85.94
2023-03-07T11:07:37.365Z,85.81
2023-03-07T11:12:47.129Z,86.15
2023-03-07T11:17:51.734Z,86.54
2023-03-07T11:23:15.818Z,86.87
2023-03-07T11:28:31.332Z,86.10
2023-03-07T11:33:58.476Z,85.92
2023-03-07T11:39:12.094Z,86.16
2023-03-07T11:44:23.352Z,86.04
2023-03-07T11:49:40.249Z,86.49
2023-03-07T11:54:55.670Z,86.62
2023-03-07T12:00:23.733Z,86.10
2023-03-07T12:05:39.280Z,86.95
2023-03-07T12:10:55.296Z,85.96
2023-03-07T12:16:08.417Z,86.82
2023-03-07T12:21:24.718Z,86.14
2023-03-07T12:26:37.289Z,85.29
2023-03-07T12:31:44.202Z,85.61
2023-03-07T12:36:51.067Z,85.11
2023-03-07T12:42:03.702Z,86.55
2023-03-07T12:47:16.639Z,85.97
2023-03-07T12:52:30.738Z,86.94
2023-03-07T12:57:41.262Z,86.46
2023-03-07T13:02:48.378Z,86.86
2023-03-07T13:07:51.795Z,87.74
2023-03-07T13:12:56.035Z,86.38
2023-03-07T13:18:00.626Z,86.84
2023-03-07T13:23:29.386Z,87.05
2023-03-07T13:28:36.857Z,86.61
2023-03-07T13:33:39.778Z,86.80
2023-03-07T13:38:44.148Z,85.92
2023-03-07T13:44:01.432Z,86.25
2023-03-07T13:49:04.435Z,85.59
2023-03-07T13:54:12.793Z,85.74
2023-03-07T13:59:24.526Z,85.08
2023-03-07T14:04:39.968Z,85.27
2023-03-07T14:09:47.981Z,85.17
2023-03-07T14:15:06.106Z,84.55
2023-03-07T14:20:18.145Z,83.91
2023-03-07T14:25:25.100Z,83.06
2023-03-07T14:30:32.182Z,83.73
2023-03-07T14:35:37.204Z,84.37
2023-03-07T14:40:53.279Z,84.94
2023-03-07T14:46:06.324Z,83.97
2023-03-07T14:51:15.612Z,84.36
2023-03-07T14:56:22.982Z,82.63
2023-03-07T15:01:31.597Z,81.71
2023-03-07T15:06:43.785Z,82.81
2023-03-07T15:11:52.174Z,85.47
2023-03-07T15:17:01.450Z,83.95
2023-03-07T15:22:07.375Z,83.62
2023-03-07T15:27:15.013Z,83.09
2023-03-07T15:32:34.422Z,82.99
2023-03-07T15:37:51.512Z,80.80
2023-03-07T15:42:56.322Z,81.66
2023-03-07T15:48:03.367Z,82.78
2023-03-07T15:53:09.667Z,82.73
2023-03-07T15:58:15.496Z,82.85
2023-03-07T16:03:26.211Z,82.79
2023-03-07T16:08:29.267Z,82.69
2023-03-07T16:13:34.096Z,82.65
2023-03-07T16:18:38.362Z,83.08
2023-03-07T16:23:41.343Z,83.48
2023-03-07T16:28:45.578Z,83.98
2023-03-07T16:33:50.195Z,83.89
2023-03-07T16:38:53.101Z,84.17
2023-03-07T16:43:57.837Z,83.87
2023-03-07T16:49:02.034Z,83.71
2023-03-07T16:54:04.982Z,83.82
2023-03-07T16:59:08.415Z,83.87
2023-03-07T17:04:12.720Z,83.93
2023-03-07T17:09:15.843Z,83.74
2023-03-07T17:14:20.056Z,83.88
2023-03-07T17:19:27.005Z,84.41
2023-03-07T17:24:31.061Z,84.77
2023-03-07T17:29:39.293Z,84.81
2023-03-07T17:34:43.818Z,85.10
2023-03-07T17:39:46.648Z,84.85
2023-03-07T17:44:49.481Z,84.90
2023-03-07T17:49:53.733Z,85.89
2023-03-07T17:54:56.561Z,84.92
2023-03-07T17:59:59.349Z,84.64
2023-03-07T18:05:03.648Z,85.40
2023-03-07T18:10:08.857Z,85.61
2023-03-07T18:15:14.851Z,85.12
2023-03-07T18:20:21.617Z,85.86
2023-03-07T18:25:25.698Z,85.41
2023-03-07T18:30:28.617Z,85.29
2023-03-07T18:35:37.116Z,85.22
2023-03-07T18:40:40.052Z,86.09
2023-03-07T18:45:43.913Z,87.30
2023-03-07T18:50:56.695Z,86.56
2023-03-07T18:56:03.463Z,86.29
2023-03-07T19:01:14.212Z,86.76
2023-03-07T19:06:20.901Z,87.35
2023-03-07T19:11:23.698Z,87.55
2023-03-07T19:16:28.392Z,87.01
2023-03-07T19:21:32.986Z,86.52
2023-03-07T19:26:35.825Z,86.41
2023-03-07T19:31:38.800Z,87.77
2023-03-07T19:36:43.108Z,87.25
2023-03-07T19:41:47.925Z,86.94
2023-03-07T19:46:50.740Z,87.20
2023-03-07T19:51:54.916Z,86.81
2023-03-07T19:56:57.771Z,88.14
2023-03-07T20:02:00.546Z,86.80
2023-03-07T20:07:04.742Z,87.40
2023-03-07T20:12:10.008Z,87.96
2023-03-07T20:17:13.336Z,87.44
2023-03-07T20:22:18.176Z,86.18
2023-03-07T20:27:23.356Z,87.12
2023-03-07T20:32:26.215Z,86.53
2023-03-07T20:37:32.452Z,87.70
2023-03-07T20:42:35.205Z,87.31
2023-03-07T20:47:38.436Z,86.62
2023-03-07T20:52:42.681Z,86.58
2023-03-07T20:57:45.925Z,86.13
2023-03-07T21:03:00.068Z,87.07
2023-03-07T21:08:09.908Z,87.16
2023-03-07T21:13:13.259Z,86.24
2023-03-07T21:18:16.057Z,86.07
2023-03-07T21:23:20.214Z,86.22
2023-03-07T21:28:22.872Z,86.61
2023-03-07T21:33:25.577Z,86.59
2023-03-07T21:38:30.990Z,85.98
2023-03-07T21:43:33.814Z,86.16
2023-03-07T21:48:37.228Z,85.72
2023-03-07T21:53:41.321Z,84.75
2023-03-07T21:58:44.606Z,84.18
2023-03-07T22:03:48.119Z,84.08
2023-03-07T22:08:52.533Z,84.35
2023-03-07T22:13:55.323Z,84.85
2023-03-07T22:18:58.456Z,84.81
2023-03-07T22:24:02.506Z,85.08
2023-03-07T22:29:05.868Z,85.16
2023-03-07T22:34:08.599Z,83.77
2023-03-07T22:39:12.671Z,83.34
2023-03-07T22:44:15.920Z,83.10
2023-03-07T22:49:18.706Z,83.15
2023-03-07T22:54:22.911Z,83.14
2023-03-07T22:59:25.645Z,84.02
2023-03-07T23:04:30.473Z,83.13
2023-03-07T23:09:34.907Z,82.98
2023-03-07T23:14:38.564Z,83.22
2023-03-07T23:19:41.311Z,83.16
2023-03-07T23:24:45.507Z,83.43
2023-03-07T23:29:48.331Z,83.79
2023-03-07T23:34:51.148Z,84.44
2023-03-07T23:39:55.238Z,83.42
2023-03-07T23:44:58.062Z,83.73
2023-03-07T23:50:00.908Z,84.16
2023-03-07T23:55:05.329Z,83.72
